KBDN

Details ICAO KBDN
Name BEND MUNI
Region United States
Timezone America/Los_Angeles (UTC-8.0)
Plans Departing 18
Arriving 24
Stats Elevation 3,456 ft / 1,053 m (AMSL)
Location 44.094561° -121.200221°
Runways 1
Magnetic Variation 14.689° E
Sunrise 2017-12-16 15:35:16 UTC / 2017-12-16 07:35:16 Local
Sunset 2017-12-17 00:28:41 UTC / 2017-12-16 16:28:41 Local
Advertisement - Login to hide

Runways

ID Width Length Bearing (true) Bearing (mag) Surface Threshold Offset Overrun Length
16 75 ft / 23 m 5,204 ft / 1,586 m 180.04° 165.35° Asphalt 0 ft / 0 m 0 ft / 0 m
34 75 ft / 23 m 5,204 ft / 1,586 m 0.04° 345.35° Asphalt 0 ft / 0 m 0 ft / 0 m

Map

Weather


0- 5 10 15 20 25 30 35+ Temperature / ° C

Clouds and Precipitation
Forecast for 2017-12-16 18:00 UTC. Updated 2 hours ago

Ground ~20,000 ft ~40,000 ft Winds

METAR

KBDN 161655Z AUTO 00000KT 10SM CLR M00/M05 A3025 RMK AO2

TAF

TAF KBDN 161120Z 1612/1712 29008KT P6SM SCT050 BKN200 FM162100 35006KT P6SM BKN050 OVC100 FM170600 VRB05KT P6SM BKN060 BKN090

Frequencies

Recorded 134.42 MHz AWOS 3
Unicom 123.00 MHz CTAF/UNICOM
Warning: Do not use this data for real-world aviation or navigation. No guarantee of current accuracy is given.